Suomigracht — PHBT — position and weather

sailwx.info

Track history (hours):
 
Tides and Currents Weather Stations Pressure Air Temp Water Temp Dewpoint Dewpoint Depression Visibility Wind Speed Wind Dir Waves Ship Positions

Suomigracht

Last reported at 2015-Jul-05 18:33 UTC. Time now 2015-Jul-05 19:20 UTC.
Position N 41°32' E 009°56'.

Length 173 m; beam 26 m.

Type: Cargo ship. MMSI: 246100000.

Date/timePositionNaut miles runAvg speedWind from/ knotsBaromVisibWave heightAir tempDewpointWater temp
2015-Jul-05 18:33N 41°32' E 009°56'8 8.5
2015-Jul-05 17:34N 41°29' E 009°46'9 8.6
2015-Jul-05 16:33N 41°26' E 009°35'1211.9
2015-Jul-05 15:33N 41°20' E 009°21'1515.3
2015-Jul-05 14:33N 41°17' E 009°01'1616.0
2015-Jul-05 13:32N 41°15' E 008°39'1515.8
2015-Jul-05 12:33N 41°13' E 008°19'1615.9
2015-Jul-05 11:33N 41°05' E 008°00'1616.0
2015-Jul-05 10:33N 40°58' E 007°42'1615.8
2015-Jul-05 09:33N 40°50' E 007°23'1615.9
2015-Jul-05 08:33N 40°42' E 007°05'3216.0
2015-Jul-05 06:33N 40°27' E 006°28'6515.7
2015-Jul-05 02:24N 39°55' E 005°13'2016.1
2015-Jul-05 01:09N 39°45' E 004°51'1016.0
2015-Jul-05 00:33N 39°41' E 004°40'1616.0
2015-Jul-04 23:33N 39°33' E 004°21'3216.1
2015-Jul-04 21:33N 39°17' E 003°45'1514.7
2015-Jul-04 20:34N 39°09' E 003°29'1515.3
2015-Jul-04 19:34N 39°00' E 003°13'1515.2
2015-Jul-04 18:33N 38°53' E 002°56'1616.0
2015-Jul-04 17:33N 38°45' E 002°38'1616.1
2015-Jul-04 16:33N 38°36' E 002°21'1615.9
2015-Jul-04 15:33N 38°28' E 002°04'2015.7
2015-Jul-04 14:16N 38°17' E 001°42'1315.9
2015-Jul-04 13:29N 38°10' E 001°29'1415.2
2015-Jul-04 12:33N 38°03' E 001°13'1515.4
2015-Jul-04 11:33N 37°55' E 000°57'1615.4
2015-Jul-04 10:32N 37°46' E 000°40'1715.5
2015-Jul-04 09:28N 37°37' E 000°22'1415.0
2015-Jul-04 08:33N 37°30' E 000°07'1515.0
2015-Jul-04 07:33N 37°22' W 000°09'1514.9
2015-Jul-04 06:33N 37°14' W 000°25'1514.8
2015-Jul-04 05:33N 37°07' W 000°41'1514.7
2015-Jul-04 04:33N 36°59' W 000°56'3615.1
2015-Jul-04 02:12N 36°40' W 001°34'18514.6
2015-Jul-03 13:33N 35°60' W 005°18'10814.5
2015-Jul-03 06:06N 35°47' W 007°30'10114.5
2015-Jul-02 23:10N 35°33' W 009°33'1314.2
2015-Jul-02 22:14N 35°32' W 009°49'1014.2
2015-Jul-02 21:33N 35°31' W 010°01'3014.7
2015-Jul-02 19:29N 35°27' W 010°38'1414.6
2015-Jul-02 18:33N 35°25' W 010°54'  
Track history (hours):
 
Tides and Currents Weather Stations Pressure Air Temp Water Temp Dewpoint Dewpoint Depression Visibility Wind Speed Wind Dir Waves Ship Positions

Suomigracht

Last reported at 2015-Jul-05 18:33 UTC. Time now 2015-Jul-05 19:20 UTC.
Position N 41°32' E 009°56'.

Length 173 m; beam 26 m.

Type: Cargo ship. MMSI: 246100000.

Date/timePositionNaut miles runAvg speedWind from/ knotsBaromVisibWave heightAir tempDewpointWater temp
2015-Jul-05 18:33N 41°32' E 009°56'8 8.5
2015-Jul-05 17:34N 41°29' E 009°46'9 8.6
2015-Jul-05 16:33N 41°26' E 009°35'1211.9
2015-Jul-05 15:33N 41°20' E 009°21'1515.3
2015-Jul-05 14:33N 41°17' E 009°01'1616.0
2015-Jul-05 13:32N 41°15' E 008°39'1515.8
2015-Jul-05 12:33N 41°13' E 008°19'1615.9
2015-Jul-05 11:33N 41°05' E 008°00'1616.0
2015-Jul-05 10:33N 40°58' E 007°42'1615.8
2015-Jul-05 09:33N 40°50' E 007°23'1615.9
2015-Jul-05 08:33N 40°42' E 007°05'3216.0
2015-Jul-05 06:33N 40°27' E 006°28'6515.7
2015-Jul-05 02:24N 39°55' E 005°13'2016.1
2015-Jul-05 01:09N 39°45' E 004°51'1016.0
2015-Jul-05 00:33N 39°41' E 004°40'1616.0
2015-Jul-04 23:33N 39°33' E 004°21'3216.1
2015-Jul-04 21:33N 39°17' E 003°45'1514.7
2015-Jul-04 20:34N 39°09' E 003°29'1515.3
2015-Jul-04 19:34N 39°00' E 003°13'1515.2
2015-Jul-04 18:33N 38°53' E 002°56'1616.0
2015-Jul-04 17:33N 38°45' E 002°38'1616.1
2015-Jul-04 16:33N 38°36' E 002°21'1615.9
2015-Jul-04 15:33N 38°28' E 002°04'2015.7
2015-Jul-04 14:16N 38°17' E 001°42'1315.9
2015-Jul-04 13:29N 38°10' E 001°29'1415.2
2015-Jul-04 12:33N 38°03' E 001°13'1515.4
2015-Jul-04 11:33N 37°55' E 000°57'1615.4
2015-Jul-04 10:32N 37°46' E 000°40'1715.5
2015-Jul-04 09:28N 37°37' E 000°22'1415.0
2015-Jul-04 08:33N 37°30' E 000°07'1515.0
2015-Jul-04 07:33N 37°22' W 000°09'1514.9
2015-Jul-04 06:33N 37°14' W 000°25'1514.8
2015-Jul-04 05:33N 37°07' W 000°41'1514.7
2015-Jul-04 04:33N 36°59' W 000°56'3615.1
2015-Jul-04 02:12N 36°40' W 001°34'18514.6
2015-Jul-03 13:33N 35°60' W 005°18'10814.5
2015-Jul-03 06:06N 35°47' W 007°30'10114.5
2015-Jul-02 23:10N 35°33' W 009°33'1314.2
2015-Jul-02 22:14N 35°32' W 009°49'1014.2
2015-Jul-02 21:33N 35°31' W 010°01'3014.7
2015-Jul-02 19:29N 35°27' W 010°38'1414.6
2015-Jul-02 18:33N 35°25' W 010°54'  

Dump ship's entire track history